Time;durP1;ratioP1;P1;durP2;ratioP2;P2;SDS_P1;SDS_P2;PMS_P1;PMS_P2;Temp;Humidity;BMP_temperature;BMP_pressure;BME280_temperature;BME280_humidity;BME280_pressure;Samples;Min_cycle;Max_cycle;Signal;HPM_P1;HPM_P2
2022/05/13 00:00:13;;;;;;;6.13;2.70;;;;;;;20.78;62.06;99758.94;344998;28;1059;-71
2022/05/13 00:00:26;;;;;;;5.05;2.65;;;;;;;20.78;61.85;99762.44;345059;28;1015;-72
2022/05/13 00:00:38;;;;;;;3.83;2.60;;;;;;;20.80;62.10;99765.78;345045;28;1160;-72
2022/05/13 00:00:50;;;;;;;4.35;2.80;;;;;;;20.79;61.87;99765.94;343616;28;1177;-72
2022/05/13 00:01:07;;;;;;;5.13;2.83;;;;;;;20.78;61.65;99761.59;343547;28;1335;-71
2022/05/13 00:01:20;;;;;;;4.45;2.70;;;;;;;20.80;61.71;99765.78;343403;28;1045;-72
2022/05/13 00:01:32;;;;;;;4.47;2.70;;;;;;;20.81;61.65;99764.03;343681;28;1016;-71
2022/05/13 00:01:45;;;;;;;4.80;2.78;;;;;;;20.82;61.60;99760.41;343861;28;1058;-71
2022/05/13 00:01:57;;;;;;;5.43;3.13;;;;;;;20.84;61.60;99761.13;343686;28;1081;-71
2022/05/13 00:02:11;;;;;;;5.70;3.25;;;;;;;20.84;61.81;99759.34;343606;28;1110;-71
2022/05/13 00:02:23;;;;;;;6.32;3.22;;;;;;;20.85;61.57;99766.31;343430;28;1059;-71
2022/05/13 00:02:35;;;;;;;6.85;3.33;;;;;;;20.85;61.36;99760.19;343554;28;1251;-71
2022/05/13 00:02:47;;;;;;;6.60;3.40;;;;;;;20.87;61.58;99763.56;343505;28;1023;-72
2022/05/13 00:02:59;;;;;;;5.28;3.25;;;;;;;20.87;61.30;99760.94;343695;28;1059;-72
2022/05/13 00:03:11;;;;;;;5.20;3.22;;;;;;;20.87;61.48;99753.84;343464;28;1164;-71
2022/05/13 00:03:23;;;;;;;4.82;3.17;;;;;;;20.87;61.41;99760.94;343439;28;1194;-71
2022/05/13 00:03:37;;;;;;;5.68;3.00;;;;;;;20.85;61.57;99760.19;344130;28;1015;-72
2022/05/13 00:03:49;;;;;;;5.80;2.83;;;;;;;20.82;61.46;99758.59;343622;28;1055;-71
2022/05/13 00:04:02;;;;;;;5.60;2.90;;;;;;;20.80;61.25;99764.97;343541;28;1219;-71
2022/05/13 00:04:14;;;;;;;4.80;2.80;;;;;;;20.81;61.25;99756.94;343659;28;1079;-72
2022/05/13 00:04:26;;;;;;;4.97;2.65;;;;;;;20.83;61.28;99756.81;343349;28;1028;-71
2022/05/13 00:04:39;;;;;;;4.32;2.63;;;;;;;20.84;61.22;99755.84;342477;28;1019;-72
2022/05/13 00:04:51;;;;;;;3.65;2.60;;;;;;;20.82;61.43;99757.78;342009;28;1116;-71
2022/05/13 00:05:05;;;;;;;3.50;2.70;;;;;;;20.77;61.44;99759.94;342316;28;1231;-71
2022/05/13 00:05:17;;;;;;;4.78;2.85;;;;;;;20.79;61.63;99758.00;342220;28;1116;-71
2022/05/13 00:05:29;;;;;;;5.25;2.90;;;;;;;20.78;61.62;99757.16;342193;28;1056;-71
2022/05/13 00:05:41;;;;;;;5.55;2.95;;;;;;;20.79;61.40;99755.38;342295;28;1016;-71
2022/05/13 00:05:53;;;;;;;4.25;2.78;;;;;;;20.78;61.71;99756.31;342975;28;1051;-71
2022/05/13 00:06:06;;;;;;;3.85;2.78;;;;;;;20.78;61.48;99762.44;343671;28;1168;-71
2022/05/13 00:06:18;;;;;;;3.95;2.70;;;;;;;20.78;61.57;99762.44;343509;28;1367;-71
2022/05/13 00:06:30;;;;;;;4.22;2.72;;;;;;;20.78;61.78;99764.22;343584;28;1201;-72
2022/05/13 00:06:42;;;;;;;3.75;2.75;;;;;;;20.79;61.50;99760.66;344248;28;1027;-72
2022/05/13 00:06:54;;;;;;;3.72;2.55;;;;;;;20.77;61.74;99759.94;345208;28;832;-71
2022/05/13 00:07:07;;;;;;;5.10;2.45;;;;;;;20.74;61.51;99761.84;345086;28;1057;-72
2022/05/13 00:07:19;;;;;;;4.72;2.70;;;;;;;20.74;61.63;99766.25;343366;28;1043;-72
2022/05/13 00:07:31;;;;;;;3.88;2.92;;;;;;;20.75;61.38;99758.22;343481;28;1351;-72
2022/05/13 00:07:43;;;;;;;3.40;2.80;;;;;;;20.79;61.47;99763.28;343559;28;1023;-71
2022/05/13 00:07:55;;;;;;;3.08;2.63;;;;;;;20.79;61.47;99758.00;343603;28;1247;-71
2022/05/13 00:08:07;;;;;;;3.25;2.50;;;;;;;20.78;61.49;99757.16;342263;28;1267;-72
2022/05/13 00:08:19;;;;;;;4.20;2.70;;;;;;;20.74;61.43;99756.56;342179;28;1016;-71
2022/05/13 00:08:33;;;;;;;4.28;2.72;;;;;;;20.76;61.61;99759.06;342154;28;1150;-72
2022/05/13 00:08:45;;;;;;;3.70;2.60;;;;;;;20.72;61.39;99761.06;342246;28;1048;-72
2022/05/13 00:08:57;;;;;;;4.20;2.70;;;;;;;20.74;61.29;99756.56;342143;28;1047;-72
2022/05/13 00:09:09;;;;;;;5.07;2.83;;;;;;;20.77;61.50;99755.47;342308;28;1743;-71
2022/05/13 00:09:56;;;;;;;4.90;2.70;;;;;;;20.79;61.25;99753.56;342954;28;1088;-72
2022/05/13 00:10:00;;;;;;;4.75;2.63;;;;;;;20.77;61.40;99759.94;343855;28;1051;-72
2022/05/13 00:10:13;;;;;;;5.30;2.75;;;;;;;20.75;61.53;99755.56;344545;28;1166;-72
2022/05/13 00:10:26;;;;;;;4.13;2.83;;;;;;;20.71;61.61;99756.75;345040;28;1300;-72
2022/05/13 00:10:38;;;;;;;3.45;2.90;;;;;;;20.73;61.40;99752.22;345043;28;1094;-72
2022/05/13 00:10:50;;;;;;;3.30;2.80;;;;;;;20.72;61.60;99741.75;345226;28;1267;-71
2022/05/13 00:11:04;;;;;;;3.40;2.58;;;;;;;20.73;61.33;99754.84;344983;28;1311;-71
2022/05/13 00:11:16;;;;;;;4.15;2.80;;;;;;;20.70;61.49;99751.59;344634;28;1259;-72
2022/05/13 00:11:28;;;;;;;4.25;2.85;;;;;;;20.71;61.48;99756.75;345103;28;1029;-72
2022/05/13 00:11:40;;;;;;;3.55;2.75;;;;;;;20.69;61.44;99763.13;345120;28;1047;-72
2022/05/13 00:11:52;;;;;;;4.53;2.55;;;;;;;20.69;61.63;99755.19;344805;28;1087;-72
2022/05/13 00:12:05;;;;;;;5.03;2.33;;;;;;;20.72;61.32;99762.88;345237;28;1034;-72
2022/05/13 00:12:17;;;;;;;5.07;2.30;;;;;;;20.72;61.54;99750.50;345180;28;1318;-71
2022/05/13 00:12:35;;;;;;;4.50;2.33;;;;;;;20.74;61.47;99747.75;344813;28;1063;-71
2022/05/13 00:12:47;;;;;;;4.45;2.40;;;;;;;20.71;61.48;99759.41;345017;28;1172;-71
2022/05/13 00:12:59;;;;;;;4.40;2.88;;;;;;;20.74;61.19;99753.91;345063;28;1282;-71
2022/05/13 00:13:11;;;;;;;4.60;3.15;;;;;;;20.75;61.14;99758.22;344955;28;1031;-71
2022/05/13 00:13:23;;;;;;;4.95;3.10;;;;;;;20.73;61.31;99754.84;345168;28;1261;-71
2022/05/13 00:13:36;;;;;;;4.45;2.80;;;;;;;20.74;61.15;99756.56;344798;28;1066;-71
2022/05/13 00:13:48;;;;;;;7.45;2.70;;;;;;;20.74;61.53;99761.84;345114;28;1051;-71
2022/05/13 00:14:00;;;;;;;7.47;2.70;;;;;;;20.72;61.48;99755.78;344844;28;1054;-72
2022/05/13 00:14:12;;;;;;;6.07;2.83;;;;;;;20.72;61.42;99763.72;344803;28;1064;-72
2022/05/13 00:14:24;;;;;;;5.85;2.78;;;;;;;20.69;61.60;99761.31;345046;28;1145;-72
2022/05/13 00:14:37;;;;;;;3.80;2.40;;;;;;;20.67;61.72;99757.94;345522;28;752;-72
2022/05/13 00:14:49;;;;;;;3.65;2.38;;;;;;;20.66;61.74;99755.41;344897;28;1012;-72
2022/05/13 00:15:02;;;;;;;4.10;2.55;;;;;;;20.67;61.93;99760.59;345310;28;1583;-72
2022/05/13 00:15:19;;;;;;;5.95;2.85;;;;;;;20.68;61.83;99761.41;344053;28;1055;-71
2022/05/13 00:15:30;;;;;;;5.35;2.80;;;;;;;20.68;61.96;99756.97;343411;28;1081;-71
2022/05/13 00:15:44;;;;;;;4.97;2.72;;;;;;;20.68;61.96;99754.31;343569;28;1035;-71
2022/05/13 00:15:56;;;;;;;4.57;2.92;;;;;;;20.69;61.87;99753.38;343565;28;1011;-71
2022/05/13 00:16:08;;;;;;;4.60;3.00;;;;;;;20.69;61.88;99758.66;343636;28;1037;-71
2022/05/13 00:16:21;;;;;;;4.82;2.80;;;;;;;20.69;61.86;99758.66;343303;28;1028;-71
2022/05/13 00:16:36;;;;;;;4.47;2.70;;;;;;;20.71;61.92;99759.41;343465;28;1091;-71
2022/05/13 00:16:48;;;;;;;3.55;2.63;;;;;;;20.72;61.94;99763.72;343521;28;1062;-71
2022/05/13 00:17:00;;;;;;;4.18;2.75;;;;;;;20.70;61.96;99755.06;343457;28;1368;-71
2022/05/13 00:17:14;;;;;;;4.22;2.60;;;;;;;20.71;61.87;99764.69;343493;28;1036;-71
2022/05/13 00:17:27;;;;;;;4.53;2.53;;;;;;;20.74;62.21;99755.69;344933;28;1151;-71
2022/05/13 00:17:40;;;;;;;5.53;2.67;;;;;;;20.75;61.95;99752.94;345191;28;1118;-71
2022/05/13 00:17:54;;;;;;;6.05;2.83;;;;;;;20.74;61.76;99760.97;345269;28;1301;-71
2022/05/13 00:18:07;;;;;;;3.97;2.72;;;;;;;20.71;61.84;99762.03;344842;28;1235;-71
2022/05/13 00:18:19;;;;;;;3.53;2.75;;;;;;;20.72;62.14;99760.25;344915;28;1363;-71
2022/05/13 00:18:32;;;;;;;3.30;2.63;;;;;;;20.71;61.94;99756.75;344683;28;1042;-71
2022/05/13 00:18:44;;;;;;;3.38;2.50;;;;;;;20.70;62.17;99759.50;345115;28;1203;-71
2022/05/13 00:18:56;;;;;;;3.83;2.58;;;;;;;20.68;62.18;99759.59;344977;28;1196;-71
2022/05/13 00:19:10;;;;;;;4.30;2.70;;;;;;;20.68;62.38;99762.25;344922;28;1142;-71
2022/05/13 00:19:22;;;;;;;4.35;2.60;;;;;;;20.60;62.43;99769.91;345115;28;1064;-71
2022/05/13 00:19:35;;;;;;;5.43;2.45;;;;;;;20.59;62.45;99767.38;345096;28;1043;-71
2022/05/13 00:19:48;;;;;;;6.22;2.50;;;;;;;20.62;62.43;99762.69;344989;28;1259;-71
2022/05/13 00:20:00;;;;;;;6.22;2.67;;;;;;;20.61;62.64;99765.47;344839;28;1079;-71
2022/05/13 00:20:12;;;;;;;5.55;2.90;;;;;;;20.59;62.37;99768.22;345132;28;1233;-71
2022/05/13 00:20:26;;;;;;;5.28;3.00;;;;;;;20.60;63.03;99769.91;344823;28;1094;-71
2022/05/13 00:20:38;;;;;;;5.32;3.08;;;;;;;20.58;62.32;99761.22;345175;28;1103;-72
2022/05/13 00:20:50;;;;;;;6.20;3.03;;;;;;;20.54;62.75;99765.03;345053;28;1063;-72
2022/05/13 00:21:02;;;;;;;6.22;2.95;;;;;;;20.52;62.81;99766.94;344762;28;1383;-72
2022/05/13 00:21:15;;;;;;;5.70;3.10;;;;;;;20.54;62.78;99765.03;345142;28;1047;-72
2022/05/13 00:21:27;;;;;;;6.07;3.25;;;;;;;20.52;62.69;99769.56;345128;28;1284;-72
2022/05/13 00:21:39;;;;;;;4.03;2.90;;;;;;;20.52;62.91;99766.94;345125;28;1176;-72
2022/05/13 00:21:51;;;;;;;5.68;2.90;;;;;;;20.53;62.94;99768.63;345098;28;1191;-72
2022/05/13 00:22:03;;;;;;;5.07;2.90;;;;;;;20.53;62.88;99768.63;345041;28;1073;-72
2022/05/13 00:22:16;;;;;;;3.75;2.83;;;;;;;20.56;62.74;99763.13;343694;28;1174;-72
2022/05/13 00:22:41;;;;;;;5.10;2.92;;;;;;;20.50;63.16;99772.34;343342;28;1019;-72
2022/05/13 00:22:55;;;;;;;4.75;2.85;;;;;;;20.54;62.52;99767.66;343397;28;1011;-72
2022/05/13 00:23:07;;;;;;;3.90;2.67;;;;;;;20.56;62.96;99768.41;343631;28;1264;-72
2022/05/13 00:23:20;;;;;;;4.75;2.88;;;;;;;20.59;62.63;99762.94;342535;28;1225;-72
2022/05/13 00:23:32;;;;;;;5.20;2.92;;;;;;;20.58;62.74;99770.94;342189;28;1021;-72
2022/05/13 00:23:45;;;;;;;4.88;2.85;;;;;;;20.59;62.71;99768.22;342312;28;1041;-71
2022/05/13 00:23:57;;;;;;;4.55;2.80;;;;;;;20.52;62.79;99761.66;342266;28;1490;-72
2022/05/13 00:24:09;;;;;;;4.10;2.80;;;;;;;20.51;62.93;99768.75;342192;28;1143;-72
2022/05/13 00:24:21;;;;;;;3.63;2.90;;;;;;;20.51;63.00;99765.25;343441;28;1052;-72
2022/05/13 00:24:33;;;;;;;4.25;2.97;;;;;;;20.51;62.86;99775.81;343303;28;1032;-71
2022/05/13 00:24:46;;;;;;;4.05;2.90;;;;;;;20.49;63.03;99764.53;343298;28;1042;-71
2022/05/13 00:24:58;;;;;;;4.55;3.00;;;;;;;20.52;62.87;99764.28;343374;28;1145;-72
2022/05/13 00:25:11;;;;;;;4.18;3.00;;;;;;;20.52;62.84;99766.94;343641;28;1028;-72
2022/05/13 00:25:27;;;;;;;4.60;2.97;;;;;;;20.50;63.09;99763.56;344276;28;1008;-71
2022/05/13 00:25:39;;;;;;;4.90;2.88;;;;;;;20.45;63.20;99766.53;345132;28;1078;-71
2022/05/13 00:25:52;;;;;;;4.45;2.90;;;;;;;20.48;63.05;99766.34;345195;28;1246;-71
2022/05/13 00:26:04;;;;;;;4.32;2.80;;;;;;;20.50;62.98;99772.34;345157;28;1075;-71
2022/05/13 00:26:16;;;;;;;4.35;2.70;;;;;;;20.52;62.83;99770.44;344977;28;1003;-72
2022/05/13 00:26:28;;;;;;;4.43;2.63;;;;;;;20.49;62.79;99775.09;345008;28;1107;-72
2022/05/13 00:26:40;;;;;;;4.93;2.83;;;;;;;20.51;62.95;99766.09;343713;28;1321;-72
2022/05/13 00:26:52;;;;;;;4.25;2.80;;;;;;;20.49;62.96;99767.16;343497;28;1352;-72
2022/05/13 00:27:05;;;;;;;4.50;2.88;;;;;;;20.41;63.24;99774.81;343362;28;1154;-72
2022/05/13 00:27:17;;;;;;;4.40;3.00;;;;;;;20.38;63.19;99769.72;343513;28;1172;-72
2022/05/13 00:27:29;;;;;;;4.63;3.00;;;;;;;20.34;63.36;99763.81;343587;28;1039;-72
2022/05/13 00:27:41;;;;;;;5.95;2.80;;;;;;;20.33;63.44;99768.25;343467;28;1070;-72
2022/05/13 00:27:57;;;;;;;6.25;2.65;;;;;;;20.34;63.34;99759.41;343476;28;1335;-72
2022/05/13 00:28:09;;;;;;;5.10;2.65;;;;;;;20.35;63.38;99761.06;343522;28;1055;-72
2022/05/13 00:28:21;;;;;;;4.45;2.80;;;;;;;20.35;63.21;99771.63;343726;28;1103;-72
2022/05/13 00:28:34;;;;;;;4.40;2.97;;;;;;;20.37;63.12;99765.41;343499;28;1063;-72
2022/05/13 00:28:46;;;;;;;5.38;3.20;;;;;;;20.37;63.18;99773.34;344331;28;1230;-72
2022/05/13 00:28:58;;;;;;;5.53;3.15;;;;;;;20.37;63.20;99763.59;345064;28;1111;-72
2022/05/13 00:29:10;;;;;;;4.65;3.05;;;;;;;20.39;63.12;99766.16;345128;28;1050;-72
2022/05/13 00:29:22;;;;;;;3.83;2.72;;;;;;;20.40;63.01;99767.81;345143;28;1043;-69
2022/05/13 00:29:34;;;;;;;3.95;2.88;;;;;;;20.39;63.08;99766.16;344929;28;1101;-69
2022/05/13 00:29:46;;;;;;;3.45;2.72;;;;;;;20.41;63.04;99769.53;345109;28;1175;-69
2022/05/13 00:29:58;;;;;;;4.10;2.70;;;;;;;20.37;63.23;99758.34;345042;28;1298;-69
2022/05/13 00:30:10;;;;;;;6.00;2.92;;;;;;;20.40;63.19;99767.81;344973;28;1050;-69
2022/05/13 00:30:24;;;;;;;5.90;2.92;;;;;;;20.43;63.12;99763.16;345121;28;1306;-70
2022/05/13 00:30:40;;;;;;;4.35;2.67;;;;;;;20.41;62.86;99769.53;344835;28;1236;-69
2022/05/13 00:30:52;;;;;;;4.72;2.53;;;;;;;20.42;62.90;99756.19;344909;28;1023;-71
2022/05/13 00:31:05;;;;;;;4.88;2.72;;;;;;;20.47;62.77;99755.88;344977;28;1384;-71
2022/05/13 00:31:17;;;;;;;5.72;2.80;;;;;;;20.49;62.65;99762.72;344967;28;1252;-71
2022/05/13 00:31:29;;;;;;;5.97;2.90;;;;;;;20.48;62.61;99763.69;345111;28;1019;-71
2022/05/13 00:31:42;;;;;;;4.63;2.85;;;;;;;20.49;62.57;99761.88;345143;28;1057;-70
2022/05/13 00:31:54;;;;;;;4.20;2.72;;;;;;;20.47;62.50;99755.88;345150;28;1059;-70
2022/05/13 00:32:07;;;;;;;4.55;2.80;;;;;;;20.48;62.46;99757.53;345203;28;1126;-70
2022/05/13 00:32:19;;;;;;;4.15;2.72;;;;;;;20.48;62.37;99757.53;344961;28;1220;-70
2022/05/13 00:32:30;;;;;;;4.00;2.60;;;;;;;20.48;62.89;99754.91;345224;28;1031;-70
2022/05/13 00:32:44;;;;;;;4.50;2.60;;;;;;;20.46;62.72;99762.09;345056;28;1113;-70
2022/05/13 00:32:56;;;;;;;5.43;2.80;;;;;;;20.47;62.55;99761.16;345463;28;806;-70
2022/05/13 00:33:09;;;;;;;6.65;3.00;;;;;;;20.47;62.62;99754.06;345218;28;967;-70
2022/05/13 00:33:22;;;;;;;7.20;3.00;;;;;;;20.44;62.61;99758.72;344063;28;934;-70
2022/05/13 00:33:34;;;;;;;6.07;2.85;;;;;;;20.41;62.52;99756.31;343346;28;1249;-70
2022/05/13 00:33:46;;;;;;;4.50;2.45;;;;;;;20.37;62.79;99746.94;344022;28;1631;-70
2022/05/13 00:33:58;;;;;;;4.95;2.80;;;;;;;20.38;62.60;99753.88;343367;28;1024;-70
2022/05/13 00:34:11;;;;;;;4.50;2.90;;;;;;;20.38;62.73;99756.53;343560;28;1055;-71
2022/05/13 00:34:23;;;;;;;4.28;2.72;;;;;;;20.39;62.63;99760.88;343502;28;1067;-71
2022/05/13 00:34:35;;;;;;;4.55;2.70;;;;;;;20.41;62.70;99759.78;343749;28;1027;-71
2022/05/13 00:34:48;;;;;;;5.25;2.60;;;;;;;20.42;62.71;99755.34;343515;28;1141;-71
2022/05/13 00:35:00;;;;;;;5.38;2.70;;;;;;;20.40;62.65;99757.25;343381;28;1122;-70
2022/05/13 00:35:12;;;;;;;4.68;2.70;;;;;;;20.40;62.41;99757.25;343387;28;877;-70
2022/05/13 00:35:25;;;;;;;4.25;2.80;;;;;;;20.43;62.51;99754.41;344210;28;975;-70
2022/05/13 00:35:38;;;;;;;4.18;2.70;;;;;;;20.44;62.50;99756.09;345235;28;1034;-70
2022/05/13 00:35:50;;;;;;;3.35;2.45;;;;;;;20.46;62.51;99752.38;345149;28;1245;-70
2022/05/13 00:36:02;;;;;;;4.00;2.55;;;;;;;20.48;62.21;99754.91;345036;28;1063;-70
2022/05/13 00:36:14;;;;;;;4.22;2.60;;;;;;;20.44;62.20;99759.56;345017;28;1072;-69
2022/05/13 00:36:26;;;;;;;4.30;2.60;;;;;;;20.47;62.17;99758.50;345025;28;1055;-69
2022/05/13 00:36:38;;;;;;;4.03;2.58;;;;;;;20.49;62.25;99757.44;345077;28;1159;-69
2022/05/13 00:36:51;;;;;;;4.13;2.50;;;;;;;20.49;62.31;99761.88;344965;28;1051;-69
2022/05/13 00:37:03;;;;;;;3.92;2.50;;;;;;;20.46;62.20;99757.66;345019;28;1027;-70
2022/05/13 00:37:18;;;;;;;2.95;2.50;;;;;;;20.47;62.21;99759.34;345111;28;1179;-69
2022/05/13 00:37:36;;;;;;;4.50;2.40;;;;;;;20.49;62.09;99761.88;345019;28;1198;-69
2022/05/13 00:37:49;;;;;;;6.43;2.58;;;;;;;20.47;62.13;99758.50;343840;28;1134;-69
2022/05/13 00:38:00;;;;;;;7.07;2.80;;;;;;;20.47;61.92;99759.34;343362;28;1079;-70
2022/05/13 00:38:12;;;;;;;5.28;2.80;;;;;;;20.43;62.25;99757.06;343570;28;1055;-70
2022/05/13 00:38:25;;;;;;;4.38;2.80;;;;;;;20.45;62.05;99765.72;343488;28;1036;-69
2022/05/13 00:38:37;;;;;;;3.92;2.75;;;;;;;20.43;62.29;99759.69;343485;28;1199;-69
2022/05/13 00:38:50;;;;;;;4.00;2.72;;;;;;;20.45;62.00;99760.44;343691;28;1026;-70
2022/05/13 00:39:04;;;;;;;3.08;2.63;;;;;;;20.46;62.01;99757.66;343614;28;1185;-69
2022/05/13 00:39:16;;;;;;;4.72;2.47;;;;;;;20.42;62.07;99761.47;343509;28;1092;-70
2022/05/13 00:39:28;;;;;;;5.28;2.28;;;;;;;20.43;62.16;99757.06;343327;28;1461;-69
2022/05/13 00:39:40;;;;;;;5.70;2.25;;;;;;;20.45;62.14;99755.97;343546;28;1047;-69
2022/05/13 00:39:52;;;;;;;5.47;2.47;;;;;;;20.47;62.10;99753.22;344423;28;1069;-70
2022/05/13 00:40:05;;;;;;;5.25;2.47;;;;;;;20.48;61.98;99760.19;345112;28;1212;-69
2022/05/13 00:40:20;;;;;;;4.70;2.50;;;;;;;20.52;62.00;99761.66;345023;28;1274;-70
2022/05/13 00:40:33;;;;;;;5.07;2.70;;;;;;;20.50;61.98;99759.16;345105;28;1212;-70
2022/05/13 00:40:46;;;;;;;5.72;2.92;;;;;;;20.46;62.02;99752.38;345103;28;1094;-70
2022/05/13 00:40:58;;;;;;;5.95;3.10;;;;;;;20.45;62.24;99755.97;344832;28;1323;-69
2022/05/13 00:41:10;;;;;;;4.75;3.08;;;;;;;20.45;62.17;99755.16;344923;28;1136;-70
2022/05/13 00:41:22;;;;;;;4.47;2.92;;;;;;;20.43;62.29;99754.41;344849;28;976;-71
2022/05/13 00:41:36;;;;;;;4.20;2.83;;;;;;;20.41;62.39;99759.78;344984;28;1096;-71
2022/05/13 00:41:48;;;;;;;4.38;2.88;;;;;;;20.40;62.42;99757.25;345190;28;1066;-71
2022/05/13 00:42:08;;;;;;;3.85;2.70;;;;;;;20.35;62.62;99755.78;344925;28;1092;-71
2022/05/13 00:42:22;;;;;;;4.00;2.72;;;;;;;20.35;62.61;99755.78;345039;28;1313;-71
2022/05/13 00:42:34;;;;;;;6.57;2.72;;;;;;;20.35;62.77;99758.44;344956;28;1056;-71
2022/05/13 00:42:48;;;;;;;5.93;2.47;;;;;;;20.32;62.88;99750.75;345090;28;1207;-71
2022/05/13 00:43:03;;;;;;;4.60;2.58;;;;;;;20.34;62.78;99753.25;344938;28;1137;-71
2022/05/13 00:43:52;;;;;;;6.07;2.88;;;;;;;20.42;62.38;99755.34;344895;28;1098;-70
2022/05/13 00:44:04;;;;;;;4.18;2.80;;;;;;;20.42;62.56;99755.34;344670;28;982;-71
2022/05/13 00:44:16;;;;;;;3.65;2.85;;;;;;;20.39;62.33;99750.31;345062;28;1223;-69
2022/05/13 00:44:28;;;;;;;3.95;2.80;;;;;;;20.39;62.47;99756.44;344993;28;1067;-69
2022/05/13 00:44:41;;;;;;;4.32;2.60;;;;;;;20.42;62.32;99760.63;345039;28;1153;-69
2022/05/13 00:44:53;;;;;;;5.50;2.60;;;;;;;20.41;62.38;99757.16;344964;28;1031;-69
2022/05/13 00:45:06;;;;;;;5.20;2.70;;;;;;;20.43;62.36;99755.25;344887;28;1051;-69
2022/05/13 00:45:18;;;;;;;4.18;2.67;;;;;;;20.42;62.45;99753.53;345016;28;1063;-70
2022/05/13 00:45:34;;;;;;;3.35;2.63;;;;;;;20.36;62.21;99751.34;344864;28;1250;-69
2022/05/13 00:45:46;;;;;;;4.20;2.90;;;;;;;20.31;62.54;99754.31;345011;28;1230;-69
2022/05/13 00:45:58;;;;;;;7.80;3.10;;;;;;;20.32;62.61;99749.88;345126;28;1212;-70
2022/05/13 00:46:12;;;;;;;8.80;2.92;;;;;;;20.30;62.69;99757.94;344926;28;1288;-70
2022/05/13 00:46:28;;;;;;;6.45;2.65;;;;;;;20.29;62.77;99753.59;344967;28;1015;-69
2022/05/13 00:46:40;;;;;;;3.50;2.65;;;;;;;20.29;62.76;99756.22;345016;28;1031;-69
2022/05/13 00:46:52;;;;;;;3.92;2.80;;;;;;;20.27;62.85;99752.84;345215;28;1130;-69
2022/05/13 00:47:05;;;;;;;3.35;2.70;;;;;;;20.27;62.83;99755.50;345023;28;1000;-70
2022/05/13 00:47:18;;;;;;;4.50;2.78;;;;;;;20.32;62.65;99756.03;345411;28;774;-70
2022/05/13 00:47:30;;;;;;;5.43;2.70;;;;;;;20.32;62.93;99749.88;344782;28;1047;-69
2022/05/13 00:47:44;;;;;;;5.65;2.80;;;;;;;20.29;62.95;99748.31;344881;28;1062;-69
2022/05/13 00:47:55;;;;;;;4.57;2.67;;;;;;;20.26;62.97;99752.97;345010;28;1027;-70
2022/05/13 00:48:08;;;;;;;4.78;2.83;;;;;;;20.30;63.00;99755.28;344949;28;1202;-70
2022/05/13 00:48:20;;;;;;;4.53;2.67;;;;;;;20.31;63.00;99754.31;344911;28;1046;-70
2022/05/13 00:48:32;;;;;;;5.63;2.60;;;;;;;20.28;63.07;99756.34;344917;28;1019;-70
2022/05/13 00:48:45;;;;;;;5.40;2.83;;;;;;;20.26;63.31;99751.19;344788;28;1228;-69
2022/05/13 00:49:01;;;;;;;6.30;2.97;;;;;;;20.27;63.01;99752.84;345195;28;1123;-69
2022/05/13 00:49:15;;;;;;;6.47;2.88;;;;;;;20.30;62.97;99752.66;345454;28;838;-70
2022/05/13 00:49:28;;;;;;;5.80;2.85;;;;;;;20.30;62.79;99757.94;343559;28;1100;-69
2022/05/13 00:49:41;;;;;;;7.40;2.88;;;;;;;20.29;63.10;99756.22;343293;28;1173;-70
2022/05/13 00:49:55;;;;;;;6.95;3.00;;;;;;;20.30;62.93;99757.94;343373;28;1044;-70
2022/05/13 00:50:09;;;;;;;5.45;3.20;;;;;;;20.32;63.04;99758.66;343341;28;1173;-70
2022/05/13 00:50:24;;;;;;;5.50;2.97;;;;;;;20.33;62.92;99760.34;343729;28;1333;-71
2022/05/13 00:50:40;;;;;;;5.15;2.63;;;;;;;20.37;63.03;99752.22;342136;28;1036;-70
2022/05/13 00:50:57;;;;;;;5.57;2.90;;;;;;;20.40;62.81;99751.97;342204;28;1274;-70
2022/05/13 00:51:13;;;;;;;5.78;3.00;;;;;;;20.42;62.70;99750.06;342267;28;1016;-70
2022/05/13 00:51:32;;;;;;;5.85;2.95;;;;;;;20.45;62.75;99755.16;342256;28;1111;-70
2022/05/13 00:51:47;;;;;;;3.80;2.53;;;;;;;20.41;62.76;99761.59;343359;28;1011;-70
2022/05/13 00:52:03;;;;;;;4.88;2.63;;;;;;;20.42;62.90;99755.34;343671;28;1031;-70
2022/05/13 00:52:15;;;;;;;5.97;2.80;;;;;;;20.45;62.66;99752.50;342979;28;965;-70
2022/05/13 00:52:28;;;;;;;4.82;2.63;;;;;;;20.48;62.71;99760.19;343327;28;1131;-70
2022/05/13 00:52:48;;;;;;;4.75;2.50;;;;;;;20.51;62.61;99754.69;344669;28;1221;-70
2022/05/13 00:53:02;;;;;;;4.05;2.58;;;;;;;20.52;62.72;99757.25;344748;28;1201;-70
2022/05/13 00:53:14;;;;;;;4.05;2.70;;;;;;;20.55;62.48;99751.72;344966;28;1032;-71
2022/05/13 00:53:27;;;;;;;3.70;2.80;;;;;;;20.56;62.55;99757.84;344956;28;1031;-71
2022/05/13 00:53:39;;;;;;;3.95;2.78;;;;;;;20.56;62.41;99752.56;344661;28;1240;-71
2022/05/13 00:53:51;;;;;;;4.57;2.58;;;;;;;20.55;62.54;99761.44;345082;28;1090;-71
2022/05/13 00:54:05;;;;;;;4.07;2.40;;;;;;;20.56;62.65;99757.84;344995;28;1067;-70
2022/05/13 00:54:18;;;;;;;6.22;2.55;;;;;;;20.58;62.39;99753.28;344884;28;1193;-70
2022/05/13 00:54:31;;;;;;;6.50;2.50;;;;;;;20.59;62.30;99755.03;344960;28;1073;-70
2022/05/13 00:54:43;;;;;;;5.10;2.70;;;;;;;20.59;62.47;99757.66;344971;28;1031;-70
2022/05/13 00:54:55;;;;;;;5.72;2.88;;;;;;;20.55;62.64;99761.44;343249;28;1187;-70
2022/05/13 00:55:14;;;;;;;4.55;2.90;;;;;;;20.50;62.63;99756.50;343504;28;1119;-69
2022/05/13 00:55:38;;;;;;;3.83;2.90;;;;;;;20.49;62.69;99760.09;343591;28;1304;-69
2022/05/13 00:55:52;;;;;;;4.07;2.72;;;;;;;20.47;62.73;99766.44;342515;28;859;-69
2022/05/13 00:56:05;;;;;;;4.13;2.78;;;;;;;20.46;62.80;99756.81;342339;28;1096;-70
2022/05/13 00:56:19;;;;;;;3.85;2.70;;;;;;;20.47;62.57;99764.63;342398;28;1337;-70
2022/05/13 00:56:31;;;;;;;5.13;2.85;;;;;;;20.47;62.64;99754.06;342135;28;1149;-70
2022/05/13 00:56:46;;;;;;;5.78;2.90;;;;;;;20.47;62.67;99764.63;342300;28;1075;-70
2022/05/13 00:56:59;;;;;;;4.60;2.83;;;;;;;20.50;62.95;99758.28;342919;28;1020;-70
2022/05/13 00:57:12;;;;;;;3.55;2.78;;;;;;;20.51;62.62;99754.69;343306;28;1811;-70
2022/05/13 00:57:24;;;;;;;3.38;2.65;;;;;;;20.52;62.56;99759.00;343441;28;1072;-70
2022/05/13 00:57:38;;;;;;;3.85;2.70;;;;;;;20.53;62.64;99755.44;343612;28;1239;-70
2022/05/13 00:57:51;;;;;;;4.28;2.80;;;;;;;20.52;62.82;99756.38;343198;28;1062;-70
2022/05/13 00:58:06;;;;;;;4.47;2.70;;;;;;;20.55;62.47;99745.59;343613;28;1099;-69
2022/05/13 00:58:19;;;;;;;4.30;2.58;;;;;;;20.58;62.67;99749.81;343519;28;1047;-70
2022/05/13 00:58:35;;;;;;;3.85;2.55;;;;;;;20.60;62.34;99753.22;343097;28;1083;-70
2022/05/13 00:58:51;;;;;;;5.13;2.60;;;;;;;20.62;62.41;99752.13;343382;28;1898;-69
2022/05/13 00:59:06;;;;;;;5.53;2.47;;;;;;;20.65;62.41;99746.66;343536;28;1047;-69
2022/05/13 00:59:22;;;;;;;4.53;2.63;;;;;;;20.67;62.28;99752.66;344866;28;1024;-69
2022/05/13 00:59:37;;;;;;;4.22;2.78;;;;;;;20.65;62.11;99757.22;344904;28;1153;-69
2022/05/13 00:59:51;;;;;;;5.47;2.80;;;;;;;20.68;62.06;99756.97;344799;28;1048;-70
2022/05/13 01:00:09;;;;;;;5.15;2.60;;;;;;;20.68;62.33;99751.69;344756;28;1062;-69
2022/05/13 01:00:23;;;;;;;3.80;2.33;;;;;;;20.69;61.87;99750.75;345192;28;1118;-69
2022/05/13 01:00:36;;;;;;;3.70;2.38;;;;;;;20.72;62.04;99747.03;344784;28;1231;-70
2022/05/13 01:00:48;;;;;;;4.45;2.55;;;;;;;20.72;62.02;99752.31;344959;28;1236;-71
2022/05/13 01:01:00;;;;;;;4.68;2.65;;;;;;;20.70;61.75;99756.88;344889;28;1388;-71
2022/05/13 01:01:12;;;;;;;4.60;2.75;;;;;;;20.70;61.82;99741.00;345170;28;1274;-71
2022/05/13 01:01:24;;;;;;;3.85;2.65;;;;;;;20.71;61.96;99742.72;345196;28;1018;-71
2022/05/13 01:01:36;;;;;;;3.38;2.47;;;;;;;20.71;61.76;99754.13;345496;28;772;-71
2022/05/13 01:01:48;;;;;;;3.08;2.33;;;;;;;20.71;61.94;99743.56;345184;28;1196;-71
2022/05/13 01:02:01;;;;;;;3.30;2.35;;;;;;;20.72;61.81;99752.31;345125;28;1267;-71
2022/05/13 01:02:13;;;;;;;3.10;2.30;;;;;;;20.72;61.95;99753.16;345010;28;1152;-71
2022/05/13 01:02:25;;;;;;;3.17;2.60;;;;;;;20.72;61.63;99761.06;345073;28;1011;-71
2022/05/13 01:02:37;;;;;;;4.03;2.80;;;;;;;20.71;62.04;99754.13;344871;28;1280;-70
2022/05/13 01:02:49;;;;;;;4.78;2.75;;;;;;;20.72;61.89;99758.44;344931;28;1185;-70
2022/05/13 01:03:03;;;;;;;4.20;2.50;;;;;;;20.72;61.80;99753.16;344904;28;1068;-70
2022/05/13 01:03:16;;;;;;;3.88;2.40;;;;;;;20.72;61.99;99755.78;344983;28;1233;-69
2022/05/13 01:03:28;;;;;;;3.80;2.60;;;;;;;20.73;62.08;99754.84;344952;28;1260;-70
2022/05/13 01:03:41;;;;;;;4.78;2.63;;;;;;;20.74;61.98;99756.56;344903;28;1099;-70
2022/05/13 01:03:53;;;;;;;5.97;2.78;;;;;;;20.77;62.11;99749.34;344871;28;1038;-69